This is the latest recevied weather packets stored in our database for station/object N1YZ. If no packets are shown the sender has not sent any weather packets the latest 10 day(s).
| Time | Temp. | Humidity | Pressure | Rain* | Wind** | Luminosity | Snow |
|---|---|---|---|---|---|---|---|
| 1788016899 | 28.33° C | 82% | 1039 hPa | 0 mm | - | 91 W/m² | - |
| 1788016597 | 28.89° C | 82% | 1039.1 hPa | 0 mm | - | 52 W/m² | - |
| 1788016292 | 29.44° C | 81% | 1039.2 hPa | 0 mm | - | 101 W/m² | - |
| 1788015991 | 29.44° C | 80% | 1039.1 hPa | 0 mm | - | 171 W/m² | - |
| 1788015686 | 28.89° C | 80% | 1039.3 hPa | 0 mm | - | 403 W/m² | - |
| 1788015380 | 28.89° C | 78% | 1039.2 hPa | 0 mm | - | 291 W/m² | - |
| 1788015075 | 28.89° C | 80% | 1039.4 hPa | 0 mm | - | 117 W/m² | - |
| 1788014773 | 30° C | 79% | 1039.1 hPa | 0 mm | - | 98 W/m² | - |
| 1788014468 | 30° C | 79% | 1039.3 hPa | 0 mm | - | 289 W/m² | - |
| 1788014175 | 30° C | 77% | 1039.3 hPa | 0 mm | - | 337 W/m² | - |
| 1788013863 | 29.44° C | 78% | 1039.4 hPa | 0 mm | - | 328 W/m² | - |
| 1788013562 | 28.33° C | 84% | 1039.2 hPa | 0 mm | - | 314 W/m² | - |
| 1788013257 | 27.78° C | 85% | 1039 hPa | 0 mm | - | 303 W/m² | - |
| 1788012956 | 26.11° C | 88% | 1039 hPa | 0 mm | - | 291 W/m² | - |
| 1788012655 | 26.11° C | 90% | 1039 hPa | 0 mm | - | 156 W/m² | - |
| 1788012345 | 26.11° C | 90% | 1039 hPa | 0 mm | - | 43 W/m² | - |
| 1788012040 | 25.56° C | 90% | 1039 hPa | 0 mm | - | 37 W/m² | - |
| 1788011738 | 25.56° C | 90% | 1038.8 hPa | 0 mm | - | 49 W/m² | - |
| 1788011428 | 25.56° C | 91% | 1039 hPa | 0 mm | - | 38 W/m² | - |
| 1788011128 | 25° C | 92% | 1038.9 hPa | 0 mm | - | 33 W/m² | - |
| 1788010822 | 24.44° C | 93% | 1038.6 hPa | 0 mm | - | 60 W/m² | - |
| 1788010521 | 24.44° C | 94% | 1038.6 hPa | 0 mm | - | 32 W/m² | - |
| 1788010216 | 23.89° C | 95% | 1038.6 hPa | 0 mm | - | 55 W/m² | - |
| 1788009915 | 23.33° C | 96% | 1038.8 hPa | 0 mm | - | 29 W/m² | - |
| 1788009620 | 23.33° C | 96% | 1038.8 hPa | 0 mm | - | 29 W/m² | - |
* Rain latest hour (hover to see other rain measurements)
** Current wind speed in m/s (hover to see current wind gust speed)